Time;durP1;ratioP1;P1;durP2;ratioP2;P2;SDS_P1;SDS_P2;PMS_P1;PMS_P2;Temp;Humidity;BMP_temperature;BMP_pressure;BME280_temperature;BME280_humidity;BME280_pressure;Samples;Min_cycle;Max_cycle;Signal;HPM_P1;HPM_P2
2022/10/16 00:01:15;;;;;;;4.30;2.73;;;14.40;99.90;;;;;;5076190;28;20469;-85
2022/10/16 00:03:45;;;;;;;5.47;2.47;;;14.40;99.90;;;;;;5084099;28;20979;-86
2022/10/16 00:06:12;;;;;;;5.00;2.13;;;14.40;99.90;;;;;;5076611;28;21030;-85
2022/10/16 00:08:40;;;;;;;5.53;2.60;;;14.40;99.90;;;;;;5075693;28;20448;-85
2022/10/16 00:11:09;;;;;;;4.40;2.40;;;14.40;99.90;;;;;;5076573;28;20532;-84
2022/10/16 00:13:38;;;;;;;5.10;3.03;;;14.40;99.90;;;;;;5075757;28;20564;-84
2022/10/16 00:16:06;;;;;;;3.20;2.70;;;14.30;99.90;;;;;;5076506;28;20461;-85
2022/10/16 00:18:33;;;;;;;3.30;2.50;;;14.30;99.90;;;;;;5076095;28;20494;-86
2022/10/16 00:21:07;;;;;;;4.33;2.40;;;14.30;99.90;;;;;;5077074;28;20465;-85
2022/10/16 00:23:35;;;;;;;4.47;2.17;;;14.30;99.90;;;;;;5076172;28;20470;-85
2022/10/16 00:26:04;;;;;;;4.13;2.50;;;14.30;99.90;;;;;;5076289;28;20526;-84
2022/10/16 00:28:34;;;;;;;4.40;2.40;;;14.30;99.90;;;;;;5076880;28;20543;-86
2022/10/16 00:31:04;;;;;;;5.10;2.23;;;14.20;99.90;;;;;;5076300;28;20482;-85
2022/10/16 00:33:31;;;;;;;2.80;2.30;;;14.20;99.90;;;;;;5077290;28;20488;-83
2022/10/16 00:35:58;;;;;;;6.27;2.30;;;14.20;99.90;;;;;;5077510;28;20526;-85
2022/10/16 00:38:27;;;;;;;3.47;2.27;;;14.20;99.90;;;;;;5077122;28;20451;-85
2022/10/16 00:40:54;;;;;;;3.57;2.30;;;14.20;99.90;;;;;;5095769;28;20446;-86
2022/10/16 00:43:38;;;;;;;3.60;2.27;;;14.20;99.90;;;;;;5098059;28;20481;-85
2022/10/16 00:46:09;;;;;;;5.73;2.63;;;14.20;99.90;;;;;;5073146;28;20420;-86
2022/10/16 00:48:36;;;;;;;3.30;2.13;;;14.20;99.90;;;;;;5079225;28;20470;-87
2022/10/16 00:51:04;;;;;;;2.53;1.90;;;14.10;99.90;;;;;;5079473;28;20558;-83
2022/10/16 00:53:34;;;;;;;7.20;2.33;;;14.10;99.90;;;;;;5074134;28;20509;-84
2022/10/16 00:56:02;;;;;;;3.60;2.13;;;14.10;99.90;;;;;;5070193;28;20502;-88
2022/10/16 00:58:29;;;;;;;2.60;1.80;;;14.10;99.90;;;;;;5074517;28;20452;-83
2022/10/16 01:00:56;;;;;;;2.40;1.97;;;14.10;99.90;;;;;;5055492;28;20823;-84
2022/10/16 01:03:26;;;;;;;4.40;2.47;;;14.10;99.90;;;;;;5062885;28;20493;-84
2022/10/16 01:06:07;;;;;;;3.60;1.57;;;14.10;99.90;;;;;;5055270;28;20439;-83
2022/10/16 01:08:45;;;;;;;4.40;1.97;;;14.10;99.90;;;;;;5064001;28;20926;-84
2022/10/16 01:11:18;;;;;;;5.37;2.27;;;14.10;99.90;;;;;;5076002;28;20490;-85
2022/10/16 01:13:49;;;;;;;5.20;2.00;;;14.00;99.90;;;;;;5075024;28;20516;-85
2022/10/16 01:16:22;;;;;;;4.03;1.93;;;14.00;99.90;;;;;;5076360;28;20441;-85
2022/10/16 01:18:54;;;;;;;3.10;2.10;;;14.10;99.90;;;;;;5075486;28;20454;-86
2022/10/16 01:21:25;;;;;;;4.30;2.10;;;14.00;99.90;;;;;;5075607;28;20456;-85
2022/10/16 01:24:03;;;;;;;3.50;1.93;;;14.00;99.90;;;;;;5067744;28;20452;-84
2022/10/16 01:26:48;;;;;;;2.27;1.57;;;14.00;99.90;;;;;;5075308;28;20454;-85
2022/10/16 01:29:21;;;;;;;7.03;2.03;;;14.00;99.90;;;;;;5076116;28;20446;-85
2022/10/16 01:31:51;;;;;;;2.87;1.50;;;14.00;99.90;;;;;;5075464;28;20495;-84
2022/10/16 01:34:23;;;;;;;3.83;2.00;;;14.00;99.90;;;;;;5076392;28;20460;-86
2022/10/16 01:36:54;;;;;;;3.00;1.73;;;14.00;99.90;;;;;;5094095;28;20423;-86
2022/10/16 01:39:24;;;;;;;2.30;1.53;;;14.00;99.90;;;;;;5100951;28;20475;-86
2022/10/16 01:41:59;;;;;;;3.90;1.97;;;13.90;99.90;;;;;;5103122;28;20561;-85
2022/10/16 01:44:32;;;;;;;3.70;2.03;;;13.90;99.90;;;;;;5078672;28;20457;-85
2022/10/16 01:47:00;;;;;;;4.93;1.67;;;13.90;99.90;;;;;;5078066;28;20451;-86
2022/10/16 01:49:30;;;;;;;4.63;1.80;;;13.90;99.90;;;;;;5077608;28;20446;-86
2022/10/16 01:52:00;;;;;;;2.33;1.43;;;13.90;99.90;;;;;;5076389;28;20596;-87
2022/10/16 01:54:31;;;;;;;7.10;1.87;;;13.90;99.90;;;;;;5077002;28;20464;-86
2022/10/16 01:57:00;;;;;;;4.83;1.73;;;13.90;99.90;;;;;;5076442;28;20478;-86
2022/10/16 01:59:32;;;;;;;3.63;1.60;;;13.90;99.90;;;;;;5076818;28;20966;-87
2022/10/16 02:02:02;;;;;;;2.77;1.63;;;13.90;99.90;;;;;;5076282;28;20470;-87
2022/10/16 02:04:33;;;;;;;4.17;1.73;;;13.90;99.90;;;;;;5075462;28;20503;-85
2022/10/16 02:07:00;;;;;;;3.70;1.57;;;13.90;99.90;;;;;;5076682;28;20455;-86
2022/10/16 02:09:27;;;;;;;2.80;1.43;;;13.80;99.90;;;;;;5076689;28;20466;-87
2022/10/16 02:11:57;;;;;;;5.40;1.70;;;13.80;99.90;;;;;;5075584;28;20497;-84
2022/10/16 02:14:25;;;;;;;2.77;2.13;;;13.80;99.90;;;;;;5083113;28;20454;-86
2022/10/16 02:16:53;;;;;;;5.03;1.67;;;13.80;99.90;;;;;;5076582;28;20461;-86
2022/10/16 02:19:22;;;;;;;3.03;1.50;;;13.80;99.90;;;;;;5075003;28;20541;-85
2022/10/16 02:21:54;;;;;;;2.30;1.70;;;13.90;99.90;;;;;;5075538;28;20468;-83
2022/10/16 02:24:29;;;;;;;2.17;1.43;;;13.90;99.90;;;;;;5076284;28;20532;-83
2022/10/16 02:27:03;;;;;;;2.70;1.63;;;13.90;99.90;;;;;;5087438;28;20469;-86
2022/10/16 02:29:31;;;;;;;2.53;1.60;;;13.90;99.90;;;;;;5097458;28;20493;-84
2022/10/16 02:32:02;;;;;;;4.10;1.90;;;13.90;99.90;;;;;;5076326;28;21048;-84
2022/10/16 02:34:32;;;;;;;3.60;1.60;;;13.90;99.90;;;;;;5076145;28;20450;-85
2022/10/16 02:37:01;;;;;;;2.73;1.50;;;13.90;99.90;;;;;;5076101;28;20458;-85
2022/10/16 02:39:29;;;;;;;3.37;1.87;;;13.90;99.90;;;;;;5076635;28;20451;-85
2022/10/16 02:41:55;;;;;;;5.23;2.00;;;13.90;99.90;;;;;;5075489;28;20471;-85
2022/10/16 02:44:22;;;;;;;3.43;1.60;;;13.90;99.90;;;;;;5076021;28;20464;-87
2022/10/16 02:46:49;;;;;;;1.83;1.20;;;14.00;99.90;;;;;;5076202;28;20458;-84
2022/10/16 02:49:17;;;;;;;1.73;1.20;;;14.00;99.90;;;;;;5076004;28;20459;-85
2022/10/16 02:51:44;;;;;;;3.53;1.50;;;14.00;99.90;;;;;;5077610;28;20486;-84
2022/10/16 02:54:12;;;;;;;7.70;1.80;;;14.00;99.90;;;;;;5075636;28;20447;-86
2022/10/16 02:56:39;;;;;;;2.80;1.47;;;14.10;99.90;;;;;;5075191;28;20467;-86
2022/10/16 02:59:06;;;;;;;4.80;2.17;;;14.10;99.90;;;;;;5075433;28;20892;-86
2022/10/16 03:01:33;;;;;;;6.50;1.97;;;14.10;99.90;;;;;;5076916;28;20448;-86
2022/10/16 03:03:59;;;;;;;5.10;1.50;;;14.10;99.90;;;;;;5080829;28;20520;-85
2022/10/16 03:06:28;;;;;;;3.77;1.57;;;14.10;99.90;;;;;;5078744;28;20542;-86
2022/10/16 03:08:54;;;;;;;2.33;1.30;;;14.10;99.90;;;;;;5095746;28;20430;-90
2022/10/16 03:11:21;;;;;;;2.27;1.43;;;14.10;99.90;;;;;;5084112;28;20578;-86
2022/10/16 03:13:48;;;;;;;3.30;1.97;;;14.10;99.90;;;;;;5077836;28;20447;-86
2022/10/16 03:16:15;;;;;;;2.87;1.47;;;14.10;99.90;;;;;;5076635;28;20462;-85
2022/10/16 03:18:41;;;;;;;6.23;1.87;;;14.10;99.90;;;;;;5077101;28;20444;-86
2022/10/16 03:21:08;;;;;;;3.10;1.50;;;14.10;99.90;;;;;;5076028;28;20458;-84
2022/10/16 03:23:36;;;;;;;1.83;1.50;;;14.10;99.90;;;;;;5080343;28;20541;-85
2022/10/16 03:26:03;;;;;;;5.93;2.53;;;14.10;99.90;;;;;;5080669;28;20451;-85
2022/10/16 03:28:30;;;;;;;5.40;1.50;;;14.10;99.90;;;;;;5080075;28;20461;-87
2022/10/16 03:30:57;;;;;;;1.90;1.40;;;14.00;99.90;;;;;;5080762;28;20462;-87
2022/10/16 03:33:23;;;;;;;2.00;1.50;;;14.10;99.90;;;;;;5077866;28;20480;-86
2022/10/16 03:35:54;;;;;;;2.40;1.40;;;14.10;99.90;;;;;;5080085;28;20455;-87
2022/10/16 03:38:22;;;;;;;4.03;1.27;;;14.10;99.90;;;;;;5079144;28;20451;-86
2022/10/16 03:40:50;;;;;;;3.13;1.40;;;14.10;99.90;;;;;;5079956;28;20459;-86
2022/10/16 03:43:17;;;;;;;2.50;1.67;;;14.10;99.90;;;;;;5078395;28;20464;-87
2022/10/16 03:45:43;;;;;;;3.30;1.80;;;14.10;99.90;;;;;;5078773;28;20858;-86
2022/10/16 03:48:10;;;;;;;2.97;1.53;;;14.10;99.90;;;;;;5078090;28;20451;-87
2022/10/16 03:50:37;;;;;;;2.40;1.30;;;14.10;99.90;;;;;;5079355;28;20454;-87
2022/10/16 03:53:04;;;;;;;1.80;1.20;;;14.00;99.90;;;;;;5077795;28;20491;-85
2022/10/16 03:55:31;;;;;;;1.70;1.10;;;14.10;99.90;;;;;;5078281;28;20525;-88
2022/10/16 03:57:59;;;;;;;3.50;1.30;;;14.10;99.90;;;;;;5079274;28;20465;-85
2022/10/16 04:00:26;;;;;;;1.90;1.10;;;14.00;99.90;;;;;;5079921;28;20453;-87
2022/10/16 04:02:53;;;;;;;2.37;1.57;;;14.00;99.90;;;;;;5086181;28;20592;-86
2022/10/16 04:05:20;;;;;;;4.90;1.80;;;14.00;99.90;;;;;;5080788;28;20458;-86
2022/10/16 04:07:47;;;;;;;2.97;1.23;;;14.00;99.90;;;;;;5081349;28;20461;-86
2022/10/16 04:10:13;;;;;;;1.87;1.30;;;13.90;99.90;;;;;;5079613;28;20455;-87
2022/10/16 04:12:40;;;;;;;2.33;1.37;;;13.90;99.90;;;;;;5081058;28;20486;-85
2022/10/16 04:15:09;;;;;;;2.27;1.40;;;13.90;99.90;;;;;;5079920;28;21012;-86
2022/10/16 04:17:36;;;;;;;2.70;1.27;;;13.90;99.90;;;;;;5079291;28;20466;-86
2022/10/16 04:20:04;;;;;;;4.10;1.20;;;13.90;99.90;;;;;;5079870;28;20674;-86
2022/10/16 04:22:30;;;;;;;2.70;1.80;;;13.80;99.90;;;;;;5079702;28;20467;-86
2022/10/16 04:24:57;;;;;;;1.90;1.20;;;13.80;99.90;;;;;;5078377;28;20467;-86
2022/10/16 04:27:24;;;;;;;2.00;0.90;;;13.80;99.90;;;;;;5079135;28;20447;-86
2022/10/16 04:29:51;;;;;;;2.17;1.30;;;13.80;99.90;;;;;;5088612;28;20462;-84
2022/10/16 04:32:19;;;;;;;2.23;1.33;;;13.80;99.90;;;;;;5087557;28;20501;-86
2022/10/16 04:34:46;;;;;;;7.73;1.33;;;13.80;99.90;;;;;;5085927;28;20450;-86
2022/10/16 04:37:12;;;;;;;3.03;1.30;;;13.80;99.90;;;;;;5079909;28;20456;-86
2022/10/16 04:39:39;;;;;;;1.70;1.10;;;13.80;99.90;;;;;;5080288;28;20943;-86
2022/10/16 04:42:06;;;;;;;2.07;1.30;;;13.80;99.90;;;;;;5079588;28;20467;-85
2022/10/16 04:44:33;;;;;;;1.70;1.07;;;13.80;99.90;;;;;;5079131;28;20478;-87
2022/10/16 04:46:59;;;;;;;2.47;1.10;;;13.80;99.90;;;;;;5078758;28;20465;-87
2022/10/16 04:49:28;;;;;;;2.90;1.43;;;13.70;99.90;;;;;;5077986;28;20451;-85
2022/10/16 04:51:54;;;;;;;3.40;1.10;;;13.60;99.90;;;;;;5079604;28;20489;-84
2022/10/16 04:54:21;;;;;;;1.70;1.10;;;13.70;99.90;;;;;;5077959;28;20958;-87
2022/10/16 04:56:50;;;;;;;2.93;1.10;;;13.70;99.90;;;;;;5079260;28;20970;-86
2022/10/16 04:59:17;;;;;;;1.83;1.10;;;13.70;99.90;;;;;;5079773;28;20459;-85
2022/10/16 05:01:44;;;;;;;1.70;1.50;;;13.70;99.90;;;;;;5079678;28;20856;-86
2022/10/16 05:04:11;;;;;;;2.00;1.30;;;13.60;99.90;;;;;;5088816;28;20485;-84
2022/10/16 05:06:42;;;;;;;2.90;1.30;;;13.70;99.90;;;;;;5082254;28;20451;-86
2022/10/16 05:09:09;;;;;;;1.57;1.00;;;13.70;99.90;;;;;;5078047;28;20545;-86
2022/10/16 05:11:36;;;;;;;3.13;1.37;;;13.70;99.90;;;;;;5077674;28;20489;-86
2022/10/16 05:14:03;;;;;;;1.93;1.10;;;13.70;99.90;;;;;;5080943;28;20957;-86
2022/10/16 05:16:31;;;;;;;3.83;1.30;;;13.70;99.90;;;;;;5078559;28;20461;-87
2022/10/16 05:18:57;;;;;;;2.20;1.10;;;13.70;99.90;;;;;;5080300;28;20452;-85
2022/10/16 05:21:24;;;;;;;3.50;1.33;;;13.70;99.90;;;;;;5099740;28;20504;-90
2022/10/16 05:23:54;;;;;;;2.27;1.07;;;13.80;99.90;;;;;;5083443;28;20443;-86
2022/10/16 05:26:21;;;;;;;1.87;1.33;;;13.80;99.90;;;;;;5077715;28;20454;-87
2022/10/16 05:28:48;;;;;;;2.47;1.37;;;13.80;99.90;;;;;;5076591;28;20451;-85
2022/10/16 05:31:15;;;;;;;2.70;1.27;;;13.80;99.90;;;;;;5077385;28;20458;-85
2022/10/16 05:33:43;;;;;;;2.60;1.40;;;13.80;99.90;;;;;;5076859;28;20477;-85
2022/10/16 05:36:10;;;;;;;1.70;0.97;;;13.80;99.90;;;;;;5077500;28;20504;-83
2022/10/16 05:38:38;;;;;;;1.83;1.10;;;13.80;99.90;;;;;;5077268;28;20451;-85
2022/10/16 05:41:06;;;;;;;4.30;1.17;;;13.90;99.90;;;;;;5077899;28;20453;-83
2022/10/16 05:43:33;;;;;;;3.67;1.20;;;13.90;99.90;;;;;;5059646;28;20474;-86
2022/10/16 05:46:02;;;;;;;4.17;1.87;;;13.80;99.90;;;;;;5074877;28;20447;-84
2022/10/16 05:48:29;;;;;;;5.50;1.27;;;13.90;99.90;;;;;;5076928;28;20462;-83
2022/10/16 05:50:59;;;;;;;1.93;1.30;;;13.90;99.90;;;;;;5078484;28;20449;-85
2022/10/16 05:53:27;;;;;;;2.13;1.20;;;13.90;99.90;;;;;;5077831;28;20517;-85
2022/10/16 05:55:54;;;;;;;2.43;1.30;;;13.80;99.90;;;;;;5075487;28;20457;-85
2022/10/16 05:58:23;;;;;;;3.60;1.37;;;13.90;99.90;;;;;;5075362;28;20456;-85
2022/10/16 06:00:56;;;;;;;4.90;1.57;;;13.80;99.90;;;;;;5078069;28;20469;-86
2022/10/16 06:03:23;;;;;;;3.97;1.13;;;13.80;99.90;;;;;;5076747;28;20490;-87
2022/10/16 06:05:50;;;;;;;2.03;1.23;;;13.90;99.90;;;;;;5087115;28;20993;-87
2022/10/16 06:08:17;;;;;;;2.73;1.10;;;13.90;99.90;;;;;;5069463;28;20460;-86
2022/10/16 06:10:45;;;;;;;1.70;1.10;;;13.90;99.90;;;;;;5074591;28;20531;-86
2022/10/16 06:13:11;;;;;;;2.00;1.00;;;13.90;99.90;;;;;;5073593;28;20499;-86
2022/10/16 06:15:41;;;;;;;2.20;1.10;;;13.90;99.90;;;;;;5079544;28;20458;-86
2022/10/16 06:18:08;;;;;;;3.27;1.30;;;13.90;99.90;;;;;;5074254;28;20456;-86
2022/10/16 06:20:35;;;;;;;1.73;1.13;;;13.90;99.90;;;;;;5075434;28;20459;-85
2022/10/16 06:23:03;;;;;;;2.43;1.03;;;13.90;99.90;;;;;;5077352;28;20843;-86
2022/10/16 06:25:30;;;;;;;2.93;1.10;;;13.90;99.90;;;;;;5076166;28;20465;-85
2022/10/16 06:27:57;;;;;;;2.50;1.10;;;13.90;99.90;;;;;;5076890;28;20455;-84
2022/10/16 06:30:24;;;;;;;2.40;1.23;;;13.80;99.90;;;;;;5080015;28;20469;-83
2022/10/16 06:32:52;;;;;;;2.33;1.40;;;13.80;99.90;;;;;;5080162;28;20487;-84
2022/10/16 06:35:19;;;;;;;2.03;1.20;;;13.80;99.90;;;;;;5085628;28;20612;-83
2022/10/16 06:37:46;;;;;;;2.93;1.47;;;13.80;99.90;;;;;;5079421;28;20458;-83
2022/10/16 06:40:14;;;;;;;2.50;1.00;;;13.90;99.90;;;;;;5079651;28;20454;-84
2022/10/16 06:42:41;;;;;;;1.97;1.17;;;13.80;99.90;;;;;;5080716;28;20481;-83
2022/10/16 06:45:08;;;;;;;4.73;1.40;;;13.90;99.90;;;;;;5079178;28;20526;-84
2022/10/16 06:47:35;;;;;;;3.80;1.50;;;13.90;99.90;;;;;;5080773;28;20461;-84
2022/10/16 06:50:06;;;;;;;6.60;1.97;;;13.90;99.90;;;;;;5080187;28;20456;-85
2022/10/16 06:52:33;;;;;;;2.87;1.60;;;14.00;99.90;;;;;;5080586;28;20478;-85
2022/10/16 06:54:59;;;;;;;2.17;1.40;;;14.00;99.90;;;;;;5076495;28;20454;-84
2022/10/16 06:57:26;;;;;;;3.43;1.40;;;14.10;99.90;;;;;;5073066;28;20454;-85
2022/10/16 06:59:53;;;;;;;3.33;1.30;;;14.10;99.90;;;;;;5079899;28;20486;-85
2022/10/16 07:02:20;;;;;;;2.27;1.40;;;14.10;99.90;;;;;;5077254;28;20485;-85
2022/10/16 07:04:47;;;;;;;3.13;1.40;;;14.20;99.90;;;;;;5072672;28;20455;-85
2022/10/16 07:07:15;;;;;;;2.37;1.50;;;14.20;99.90;;;;;;5082008;28;20449;-84
2022/10/16 07:09:42;;;;;;;4.03;1.70;;;14.30;99.90;;;;;;5082635;28;20446;-86
2022/10/16 07:12:09;;;;;;;4.20;2.07;;;14.20;99.90;;;;;;5080062;28;20542;-85
2022/10/16 07:14:36;;;;;;;3.00;1.67;;;14.20;99.90;;;;;;5081269;28;20454;-85
2022/10/16 07:17:03;;;;;;;2.40;1.50;;;14.20;99.90;;;;;;5076672;28;20447;-85
2022/10/16 07:19:30;;;;;;;2.27;1.67;;;14.30;99.90;;;;;;5076386;28;20463;-86
2022/10/16 07:21:57;;;;;;;3.17;1.57;;;14.30;99.90;;;;;;5075641;28;20509;-88
2022/10/16 07:24:25;;;;;;;2.60;1.50;;;14.30;99.90;;;;;;5076002;28;20949;-87
2022/10/16 07:26:52;;;;;;;4.03;1.80;;;14.30;99.90;;;;;;5076805;28;20530;-86
2022/10/16 07:29:20;;;;;;;3.30;1.97;;;14.20;99.90;;;;;;5077632;28;20506;-85
2022/10/16 07:31:49;;;;;;;3.20;1.60;;;14.30;99.90;;;;;;5082865;28;20482;-88
2022/10/16 07:34:18;;;;;;;2.90;2.27;;;14.30;99.90;;;;;;5097964;28;20473;-85
2022/10/16 07:36:48;;;;;;;3.03;1.40;;;14.30;99.90;;;;;;5077847;28;20853;-86
2022/10/16 07:39:14;;;;;;;3.53;2.40;;;14.30;99.90;;;;;;5075919;28;20965;-86
2022/10/16 07:41:43;;;;;;;3.43;2.17;;;14.30;99.90;;;;;;5075396;28;20561;-86
2022/10/16 07:44:09;;;;;;;6.03;2.67;;;14.30;99.90;;;;;;5076137;28;20823;-86
2022/10/16 07:46:36;;;;;;;4.67;1.97;;;14.40;99.90;;;;;;5075009;28;20549;-86
2022/10/16 07:49:03;;;;;;;2.20;1.80;;;14.40;99.90;;;;;;5074967;28;20899;-87
2022/10/16 07:51:30;;;;;;;4.27;1.70;;;14.40;99.90;;;;;;5075122;28;20482;-86
2022/10/16 07:53:57;;;;;;;2.77;1.73;;;14.40;99.90;;;;;;5074076;28;20925;-86
2022/10/16 07:56:24;;;;;;;2.57;1.23;;;14.40;99.90;;;;;;5075496;28;20555;-87
2022/10/16 07:58:53;;;;;;;3.50;1.23;;;14.50;99.90;;;;;;5074414;28;20461;-86
2022/10/16 08:01:20;;;;;;;3.43;1.50;;;14.60;99.90;;;;;;5074735;28;20842;-86
2022/10/16 08:03:49;;;;;;;2.33;1.80;;;14.60;99.90;;;;;;5075703;28;20459;-87
2022/10/16 08:06:16;;;;;;;3.17;1.30;;;14.60;99.90;;;;;;5075399;28;20458;-87
2022/10/16 08:08:43;;;;;;;2.17;1.70;;;14.70;99.90;;;;;;5077840;28;20462;-87
2022/10/16 08:11:10;;;;;;;2.40;1.70;;;14.80;99.90;;;;;;5094638;28;20553;-88
2022/10/16 08:13:37;;;;;;;2.03;1.40;;;14.80;99.90;;;;;;5095163;28;20554;-87
2022/10/16 08:16:07;;;;;;;2.60;1.40;;;14.90;99.90;;;;;;5087507;28;20500;-88
2022/10/16 08:18:34;;;;;;;2.47;1.50;;;14.90;99.90;;;;;;5087320;28;20502;-87
2022/10/16 08:21:01;;;;;;;4.43;1.57;;;15.00;99.90;;;;;;5080372;28;20464;-86
2022/10/16 08:23:29;;;;;;;3.80;1.53;;;15.00;99.90;;;;;;5076893;28;20474;-88
2022/10/16 08:25:56;;;;;;;1.87;1.27;;;15.10;99.90;;;;;;5076430;28;20455;-87
2022/10/16 08:28:24;;;;;;;4.47;1.63;;;15.10;99.90;;;;;;5076221;28;20527;-87
2022/10/16 08:30:51;;;;;;;2.30;1.37;;;15.10;99.90;;;;;;5078248;28;21026;-87
2022/10/16 08:33:19;;;;;;;2.70;1.00;;;15.20;99.90;;;;;;5078107;28;20494;-86
2022/10/16 08:35:53;;;;;;;3.50;1.33;;;15.30;99.90;;;;;;5076093;28;20465;-87
2022/10/16 08:38:20;;;;;;;4.93;1.40;;;15.30;99.90;;;;;;5075745;28;20460;-86
2022/10/16 08:40:47;;;;;;;4.13;1.23;;;15.40;99.90;;;;;;5073841;28;20449;-87
2022/10/16 08:43:43;;;;;;;5.60;1.77;;;15.40;99.90;;;;;;5071886;28;20470;-87
2022/10/16 08:46:34;;;;;;;4.33;1.50;;;15.40;99.90;;;;;;5075115;28;20539;-87
2022/10/16 08:49:04;;;;;;;6.47;1.53;;;15.40;99.90;;;;;;5074993;28;20447;-87
2022/10/16 08:51:34;;;;;;;3.97;1.17;;;15.60;99.90;;;;;;5075541;28;20454;-87
2022/10/16 08:54:05;;;;;;;2.87;1.20;;;15.60;99.90;;;;;;5076145;28;20487;-88
2022/10/16 08:56:33;;;;;;;2.93;1.20;;;15.60;99.90;;;;;;5077264;28;20844;-87
2022/10/16 08:59:00;;;;;;;3.97;1.30;;;15.70;99.90;;;;;;5077162;28;21028;-87
2022/10/16 09:01:39;;;;;;;6.30;1.00;;;15.70;99.90;;;;;;5080072;28;20528;-88
2022/10/16 09:04:49;;;;;;;4.00;1.23;;;15.80;99.90;;;;;;5096760;28;20476;-88
2022/10/16 09:07:23;;;;;;;3.30;1.30;;;15.90;99.90;;;;;;5075935;28;20502;-90
2022/10/16 09:10:10;;;;;;;4.50;1.20;;;16.00;99.90;;;;;;5096306;28;20513;-89
2022/10/16 09:12:42;;;;;;;2.50;1.37;;;16.00;99.90;;;;;;5063874;28;20480;-89
2022/10/16 09:15:21;;;;;;;5.10;1.63;;;16.10;99.90;;;;;;5074515;28;20479;-87
2022/10/16 09:17:57;;;;;;;3.43;1.33;;;16.10;99.90;;;;;;5072790;28;21273;-89
2022/10/16 09:20:33;;;;;;;5.13;1.70;;;16.20;99.90;;;;;;5077786;28;20505;-88
2022/10/16 09:23:15;;;;;;;3.17;1.20;;;16.20;99.90;;;;;;5074610;28;20467;-88
2022/10/16 09:25:47;;;;;;;2.77;1.30;;;16.30;99.90;;;;;;5075965;28;20477;-88
2022/10/16 09:28:14;;;;;;;2.20;1.20;;;16.30;99.90;;;;;;5075541;28;20454;-87
2022/10/16 09:30:44;;;;;;;3.83;1.30;;;16.30;99.90;;;;;;5077303;28;20455;-87
2022/10/16 09:33:15;;;;;;;4.70;1.17;;;16.50;99.90;;;;;;5078886;28;20506;-87
2022/10/16 09:35:46;;;;;;;4.10;1.53;;;16.60;99.90;;;;;;5075664;28;20453;-87
2022/10/16 09:38:24;;;;;;;1.87;1.23;;;16.70;99.90;;;;;;5075746;28;20458;-88
2022/10/16 09:40:51;;;;;;;4.00;0.90;;;16.90;99.90;;;;;;5068044;28;20556;-88
2022/10/16 09:43:24;;;;;;;4.23;1.23;;;16.90;99.90;;;;;;5075179;28;20486;-87
2022/10/16 09:45:58;;;;;;;3.80;0.93;;;16.80;99.90;;;;;;5101982;28;20464;-88
2022/10/16 09:48:29;;;;;;;3.60;1.27;;;16.90;99.90;;;;;;5082042;28;20486;-88
2022/10/16 09:51:02;;;;;;;6.87;1.07;;;16.90;99.90;;;;;;5076453;28;20464;-90
2022/10/16 09:53:40;;;;;;;3.77;1.10;;;16.90;99.90;;;;;;5086688;28;20486;-88
2022/10/16 09:56:07;;;;;;;11.00;1.40;;;16.80;99.90;;;;;;5073825;28;20546;-87
2022/10/16 09:58:34;;;;;;;4.20;1.20;;;16.90;99.90;;;;;;5073888;28;20462;-87
2022/10/16 10:01:01;;;;;;;5.03;1.40;;;17.00;99.90;;;;;;5075038;28;20525;-87
2022/10/16 10:03:40;;;;;;;7.03;1.30;;;17.00;99.90;;;;;;5074709;28;20490;-87
2022/10/16 10:06:23;;;;;;;6.00;1.30;;;17.20;99.90;;;;;;5071232;28;20458;-87
2022/10/16 10:09:02;;;;;;;3.90;1.10;;;17.30;99.90;;;;;;5070718;28;20472;-87
2022/10/16 10:11:45;;;;;;;2.63;1.00;;;17.30;99.90;;;;;;5074689;28;20545;-87
2022/10/16 10:14:26;;;;;;;2.17;1.17;;;17.50;99.90;;;;;;5077508;28;20482;-85
2022/10/16 10:17:09;;;;;;;2.97;1.00;;;17.70;99.90;;;;;;5075527;28;20524;-86
2022/10/16 10:19:39;;;;;;;2.30;1.00;;;18.30;99.90;;;;;;5076907;28;20846;-88
2022/10/16 10:22:23;;;;;;;2.43;1.20;;;18.70;99.90;;;;;;5075619;28;20473;-87
2022/10/16 10:25:16;;;;;;;3.70;1.37;;;19.40;99.90;;;;;;5075543;28;20468;-87
2022/10/16 10:28:00;;;;;;;2.67;1.30;;;19.60;99.90;;;;;;5074582;28;20458;-88
2022/10/16 10:30:36;;;;;;;3.27;1.17;;;19.80;99.90;;;;;;5080014;28;20990;-87
2022/10/16 10:36:09;;;;;;;5.70;1.30;;;20.70;99.90;;;;;;5076317;28;20431;-88
2022/10/16 10:38:47;;;;;;;3.37;1.17;;;21.20;99.90;;;;;;5074680;28;20495;-88
2022/10/16 10:41:42;;;;;;;2.13;1.00;;;21.40;99.90;;;;;;5073425;28;20489;-87
2022/10/16 10:44:16;;;;;;;3.90;1.30;;;21.80;99.90;;;;;;5076950;28;20504;-87
2022/10/16 10:46:49;;;;;;;2.30;1.33;;;22.20;99.90;;;;;;5074034;28;20458;-90
2022/10/16 10:49:37;;;;;;;3.63;1.27;;;22.60;99.90;;;;;;5073248;28;20453;-87
2022/10/16 10:52:18;;;;;;;2.30;1.10;;;22.80;99.90;;;;;;5077455;28;20477;-89
2022/10/16 10:54:57;;;;;;;3.67;0.97;;;22.90;99.90;;;;;;5079282;28;20479;-87
2022/10/16 10:57:30;;;;;;;4.67;1.03;;;23.30;99.90;;;;;;5059307;28;20454;-88
2022/10/16 11:00:12;;;;;;;2.70;0.90;;;23.80;99.90;;;;;;5079178;28;20588;-88
2022/10/16 11:02:43;;;;;;;2.40;1.20;;;23.80;99.90;;;;;;5069823;28;20485;-87
2022/10/16 11:05:37;;;;;;;4.43;1.00;;;23.90;99.90;;;;;;5074627;28;20969;-87
2022/10/16 11:08:11;;;;;;;2.43;1.00;;;23.60;99.90;;;;;;5068129;28;20447;-87
2022/10/16 11:10:47;;;;;;;4.73;1.10;;;24.00;99.90;;;;;;5072670;28;20461;-88
2022/10/16 11:13:24;;;;;;;5.07;1.20;;;24.00;99.90;;;;;;5080884;28;20466;-87
2022/10/16 11:15:54;;;;;;;4.17;1.03;;;24.40;99.90;;;;;;5085139;28;20443;-87
2022/10/16 11:18:28;;;;;;;5.40;1.23;;;25.00;99.90;;;;;;5060768;28;20465;-90
2022/10/16 11:21:01;;;;;;;3.10;0.90;;;25.20;99.90;;;;;;5072331;28;20529;-87
2022/10/16 11:23:32;;;;;;;9.57;5.60;;;25.80;99.90;;;;;;5066910;28;20482;-86
2022/10/16 11:26:07;;;;;;;7.50;3.00;;;26.30;99.90;;;;;;5073086;28;20459;-87
2022/10/16 11:28:38;;;;;;;5.07;2.03;;;26.40;99.90;;;;;;5071885;28;20438;-86
2022/10/16 11:31:11;;;;;;;3.07;1.20;;;26.40;99.90;;;;;;5071532;28;20530;-87
2022/10/16 11:33:43;;;;;;;5.13;1.60;;;26.70;99.90;;;;;;5072414;28;20473;-88
2022/10/16 11:36:18;;;;;;;3.37;1.30;;;26.40;99.90;;;;;;5069153;28;20907;-86
2022/10/16 11:38:53;;;;;;;3.73;1.50;;;26.10;99.90;;;;;;5073896;28;20533;-89
2022/10/16 11:41:30;;;;;;;3.70;1.50;;;27.00;99.90;;;;;;5080755;28;20510;-87
2022/10/16 11:44:18;;;;;;;5.07;2.47;;;28.00;99.90;;;;;;5080713;28;20444;-88
2022/10/16 11:46:53;;;;;;;29.87;26.77;;;28.90;99.90;;;;;;5091691;28;20458;-89
2022/10/16 11:49:25;;;;;;;5.33;4.00;;;29.20;94.80;;;;;;5067569;28;20454;-86
2022/10/16 11:52:01;;;;;;;2.73;1.23;;;30.00;96.60;;;;;;5073672;28;20478;-87
2022/10/16 11:54:38;;;;;;;8.33;3.57;;;29.10;90.60;;;;;;5080746;28;20553;-87
2022/10/16 11:57:12;;;;;;;3.87;1.77;;;28.40;94.10;;;;;;5089112;28;20457;-88
2022/10/16 11:59:46;;;;;;;3.63;1.70;;;28.80;93.70;;;;;;5101426;28;20437;-87
2022/10/16 12:02:33;;;;;;;4.33;1.40;;;29.60;93.60;;;;;;5081761;28;20475;-87
2022/10/16 12:05:15;;;;;;;3.03;1.13;;;30.20;84.10;;;;;;5077950;28;20534;-89
2022/10/16 12:07:52;;;;;;;2.00;0.80;;;31.40;82.20;;;;;;5078350;28;20527;-87
2022/10/16 12:10:25;;;;;;;2.70;1.10;;;31.30;78.10;;;;;;5077511;28;20996;-87
2022/10/16 12:12:53;;;;;;;3.37;1.33;;;32.00;85.30;;;;;;5076649;28;20475;-86
2022/10/16 12:15:24;;;;;;;2.50;1.17;;;32.50;77.50;;;;;;5077012;28;20577;-85
2022/10/16 12:17:52;;;;;;;3.93;1.00;;;32.80;72.00;;;;;;5077607;28;20451;-89
2022/10/16 12:20:30;;;;;;;8.17;1.30;;;33.30;71.50;;;;;;5077166;28;20550;-86
2022/10/16 12:22:59;;;;;;;1.97;0.87;;;33.20;71.20;;;;;;5077506;28;20474;-87
2022/10/16 12:25:29;;;;;;;2.77;1.10;;;32.40;64.90;;;;;;5079007;28;20447;-87
2022/10/16 12:28:00;;;;;;;2.77;1.00;;;31.00;65.60;;;;;;5079347;28;20435;-86
2022/10/16 12:30:30;;;;;;;3.00;0.87;;;30.70;68.60;;;;;;5078476;28;20823;-86
2022/10/16 12:32:59;;;;;;;3.70;1.10;;;30.90;69.50;;;;;;5078101;28;20561;-86
2022/10/16 12:35:29;;;;;;;2.07;0.90;;;31.40;73.20;;;;;;5078159;28;20922;-87
2022/10/16 12:38:07;;;;;;;2.97;0.93;;;31.30;74.40;;;;;;5077527;28;20457;-87
2022/10/16 12:40:37;;;;;;;3.43;0.90;;;30.00;69.70;;;;;;5087038;28;20442;-85
2022/10/16 12:43:28;;;;;;;2.13;1.10;;;30.10;72.30;;;;;;5101228;28;20462;-87
2022/10/16 12:46:06;;;;;;;4.30;1.10;;;28.80;74.30;;;;;;5101162;28;20438;-86
2022/10/16 12:48:35;;;;;;;2.27;0.90;;;27.50;75.90;;;;;;5089514;28;20443;-85
2022/10/16 12:51:12;;;;;;;4.03;1.13;;;26.70;83.00;;;;;;5078765;28;20453;-85
2022/10/16 12:53:39;;;;;;;5.83;1.43;;;26.20;93.80;;;;;;5076560;28;20475;-86
2022/10/16 12:56:17;;;;;;;2.80;1.13;;;25.90;99.90;;;;;;5076343;28;20525;-85
2022/10/16 12:59:18;;;;;;;4.13;1.10;;;25.40;99.90;;;;;;5076311;28;20549;-85
2022/10/16 13:02:06;;;;;;;3.80;0.90;;;24.70;99.90;;;;;;5061823;28;20528;-84
2022/10/16 13:04:58;;;;;;;4.03;1.33;;;24.50;99.90;;;;;;5056818;28;20429;-87
2022/10/16 13:07:50;;;;;;;2.00;0.90;;;24.30;99.90;;;;;;5061969;28;20438;-86